ADDS METAR Data INFO
IDs: Format: Raw Decoded Include TAF

Data at: 1819 UTC 20 Jul 2018

Region: TOP
Region: TOP
KATL 201752Z 09009KT 10SM SCT025 SCT045 BKN100 BKN250 29/21 A3002 RMK AO2 SLP154 MDT CU ALQDS 60000 T02940211 10294 20239 58010

KBOS 201754Z 11012KT 10SM FEW050 25/15 A3017 RMK AO2 SLP216 T02500150 10261 20222 58004

KBWI 201754Z VRB04KT 10SM SCT060 SCT110 BKN180 BKN250 29/14 A3010 RMK AO2 SLP191 T02890139 10289 20228 58009

KCLE 201751Z 19012G19KT 10SM -RA SCT032 BKN050 OVC100 27/19 A2991 RMK AO2 LTG DSNT N AND NW RAE26B46 TSE30 SLP122 P0000 60001 T02670189 10289 20228 58006

KCLT 201752Z 06012G17KT 10SM FEW030 SCT085 BKN140 BKN250 29/16 A3004 RMK AO2 SLP161 T02940161 10300 20239 58012

KCVG 201752Z 17018G24KT 10SM SCT021 BKN026 24/19 A2986 RMK AO2 LTG DSNT W AND NW SLP100 60014 T02440194 10244 20200 58023

KDCA 201752Z 15007KT 10SM BKN070 BKN160 OVC250 28/16 A3011 RMK AO2 SLP194 T02830161 10300 20233 58008

KDEN 201753Z 01010KT 10SM FEW110 SCT150 BKN220 32/09 A3015 RMK AO2 SLP118 T03170094 10317 20194 50003

KDFW 201753Z 21013KT 10SM BKN300 39/17 A2990 RMK AO2 SLP112 T03940167 10394 20272 58004

KDTW 201753Z 14005KT 8SM -RA SCT045 OVC100 23/19 A2988 RMK AO2 SLP113 P0002 60003 T02280194 10278 20222 58001

KEWR 201751Z 15010KT 120V190 10SM FEW045 BKN250 27/15 A3015 RMK AO2 SLP208 T02670150 10278 20233 58005

KFLL 201813Z 15011KT 10SM TS FEW035 BKN065 OVC090 29/27 A3000 RMK AO2 TSB10 T02890272

KIAD 201752Z 14009KT 10SM SCT060 BKN090 BKN180 BKN250 28/16 A3010 RMK AO2 SLP190 T02780156 10294 20222 58008

KIAH 201753Z 24007KT 10SM CLR 34/23 A2997 RMK AO2 SLP148 T03440228 10344 20272 58004

KJFK 201751Z 17011KT 10SM FEW045 BKN350 26/17 A3018 RMK AO2 SLP218 T02610167 10261 20233 58002

KLAS 201756Z 16004KT 10SM FEW110 SCT250 33/17 A2998 RMK AO2 SLP125 T03280172 10333 20283 50002

KLAX 201810Z 26012KT 9SM SCT009 BKN013 BKN160 23/18 A2998 RMK AO2 T02330178

KLGA 201751Z 15010G16KT 10SM SCT044 SCT250 28/14 A3015 RMK AO2 SLP208 T02780139 10278 20222 58004 $

KMCO 201753Z 23004KT 10SM FEW045 OVC170 26/26 A3000 RMK AO2 LTG DSNT SW RAE06B23E39 SLP157 P0000 60042 T02610256 10306 20239 58002

KMDW 201753Z 25016G20KT 10SM -RA SCT015 BKN020 OVC025 23/21 A2965 RMK AO2 RAE00B44 SLP032 P0004 60010 T02280206 10267 20217 58002

KMEM 201754Z 09003KT 10SM FEW040 SCT150 SCT250 31/26 A2988 RMK AO2 SLP113 60001 T03110261 10311 20250 58010

KMIA 201753Z 13011KT 10SM SCT035TCU SCT045 SCT150 BKN250 32/25 A3001 RMK AO2 SLP162 TCU SW-NW-NE T03170250 10333 20272 58009

KMSP 201753Z 33012G20KT 10SM -RA FEW027 SCT038 BKN050 OVC250 23/19 A2984 RMK AO2 RAB43 SLP100 P0000 60003 T02280194 10239 20189 51005

KORD 201751Z 24016G21KT 10SM FEW023 BKN039 OVC065 24/18 A2964 RMK AO2 RAB09E40 SLP031 P0000 60002 T02440178 10256 20211 58007

KPDX 201753Z VRB03KT 10SM SCT036 18/08 A3020 RMK AO2 SLP225 T01780083 10183 20106 58007

KPHL 201754Z 14007KT 10SM SCT060 BKN250 29/11 A3012 RMK AO2 SLP200 T02940111 10306 20228 58013 $

KPHX 201751Z 31008KT 10SM FEW075 FEW250 37/17 A2988 RMK AO2 SLP096 T03670172 10372 20328 58001

KPIT 201810Z 24012KT 10SM -RA BKN045 BKN090 BKN250 26/17 A2999 RMK AO2 WSHFT 1750 RAB10 P0000 T02560172

KSAN 201751Z 25010KT 10SM BKN014 22/18 A3000 RMK AO2 SLP159 T02220178 10228 20211 53011

KSEA 201814Z 20007KT 10SM FEW022 SCT029 18/09 A3020 RMK AO2 T01780094

KSFO 201756Z 03008KT 10SM FEW009 FEW020 19/14 A2993 RMK AO2 SLP134 T01940144 10194 20133 51007

KSLC 201754Z 15014G20KT 10SM SCT130 BKN170 BKN220 32/08 A3006 RMK AO2 SLP113 T03170078 10317 20239 53003

KSTL 201751Z 30010G20KT 10SM FEW100 FEW250 35/14 A2982 RMK AO2 PK WND 29026/1704 SLP083 T03500144 10356 20244 58005

KTPA 201753Z 27019G27KT 10SM -TSRA SCT030CB BKN100 OVC220 28/24 A3000 RMK AO2 PK WND 27027/1753 LTG DSNT N RAB52 TSB45 SLP158 OCNL LTGIC SW-N TS SW-N MOV NE SHRA DSNT SW-N P0000 60012 T02780239 10311 20256 55001